Time;durP1;ratioP1;P1;durP2;ratioP2;P2;SDS_P1;SDS_P2;PMS_P1;PMS_P2;Temp;Humidity;BMP_temperature;BMP_pressure;BME280_temperature;BME280_humidity;BME280_pressure;Samples;Min_cycle;Max_cycle;Signal;HPM_P1;HPM_P2
2022/08/24 00:02:16;;;;;;;;;;;;;;;22.96;39.52;99835.59;12205850;19;19928;-83
2022/08/24 00:06:19;;;;;;;;;;;;;;;22.93;39.24;99836.22;12225800;19;19962;-83
2022/08/24 00:10:21;;;;;;;;;;;;;;;22.88;39.93;99836.41;12223444;19;19991;-82
2022/08/24 00:14:23;;;;;;;;;;;;;;;22.78;40.00;99831.94;12201360;19;19982;-82
2022/08/24 00:18:24;;;;;;;;;;;;;;;22.65;40.32;99833.75;12220718;19;19910;-82
2022/08/24 00:22:27;;;;;;;;;;;;;;;22.51;40.60;99833.91;12223291;19;20367;-82
2022/08/24 00:26:29;;;;;;;;;;;;;;;22.39;40.58;99833.72;12203804;19;19922;-82
2022/08/24 00:30:31;;;;;;;;;;;;;;;22.27;40.76;99839.16;12222316;19;19920;-82
2022/08/24 00:34:33;;;;;;;;;;;;;;;22.13;41.45;99839.28;12219983;19;19914;-83
2022/08/24 00:38:35;;;;;;;;;;;;;;;22.02;41.50;99837.94;12198366;19;19919;-82
2022/08/24 00:42:37;;;;;;;;;;;;;;;21.89;41.95;99841.66;12226596;19;19915;-82
2022/08/24 00:46:57;;;;;;;;;;;;;;;21.77;42.31;99851.56;12206741;19;20222;-84
2022/08/24 00:51:01;;;;;;;;;;;;;;;21.63;42.58;99848.03;12220996;19;19928;-82
2022/08/24 00:55:07;;;;;;;;;;;;;;;21.54;42.79;99853.59;12218656;19;19920;-82
2022/08/24 00:59:13;;;;;;;;;;;;;;;21.46;42.64;99842.31;12199532;19;19915;-82
2022/08/24 01:03:15;;;;;;;;;;;;;;;21.38;42.89;99839.13;12224597;19;19910;-83
2022/08/24 01:07:17;;;;;;;;;;;;;;;21.37;42.80;99839.47;12224936;19;19918;-82
2022/08/24 01:11:20;;;;;;;;;;;;;;;21.42;42.29;99847.75;12199637;19;20351;-83
2022/08/24 01:15:21;;;;;;;;;;;;;;;21.47;42.21;99844.78;12219127;19;19920;-82
2022/08/24 01:19:37;;;;;;;;;;;;;;;21.45;42.43;99843.47;12226170;19;20367;-83
2022/08/24 01:23:47;;;;;;;;;;;;;;;21.41;42.49;99850.88;12213115;19;20267;-83
2022/08/24 01:27:50;;;;;;;;;;;;;;;21.34;42.85;99840.91;12232801;19;19922;-82
2022/08/24 01:31:53;;;;;;;;;;;;;;;21.31;42.91;99844.34;12209709;19;20309;-82
2022/08/24 01:36:13;;;;;;;;;;;;;;;21.27;42.80;99848.94;12227883;19;19946;-82
2022/08/24 01:40:15;;;;;;;;;;;;;;;21.23;43.03;99850.72;12231086;19;20257;-81
2022/08/24 01:44:18;;;;;;;;;;;;;;;21.20;43.05;99856.16;12209927;19;19973;-82
2022/08/24 01:48:21;;;;;;;;;;;;;;;21.17;43.37;99852.00;12234961;19;19930;-82
2022/08/24 01:52:25;;;;;;;;;;;;;;;21.17;43.11;99854.81;12232984;19;19935;-81
2022/08/24 01:56:44;;;;;;;;;;;;;;;21.15;43.21;99854.31;12212835;19;19918;-81
2022/08/24 02:00:46;;;;;;;;;;;;;;;21.20;43.08;99861.75;12234730;19;20268;-82
2022/08/24 02:04:48;;;;;;;;;;;;;;;21.21;43.54;99858.66;12210793;19;20335;-82
2022/08/24 02:08:49;;;;;;;;;;;;;;;21.16;43.69;99868.00;12233513;19;19948;-82
2022/08/24 02:12:57;;;;;;;;;;;;;;;;;;12232506;19;19970;-81
2022/08/24 02:16:59;;;;;;;;;;;;;;;21.17;43.93;99857.59;12208992;19;19997;-81
2022/08/24 02:21:01;;;;;;;;;;;;;;;21.14;43.65;99863.84;12231227;19;19927;-81
2022/08/24 02:25:03;;;;;;;;;;;;;;;21.11;43.85;99870.09;12231814;19;19907;-82
2022/08/24 02:29:04;;;;;;;;;;;;;;;21.11;43.61;99867.28;12209058;19;19918;-81
2022/08/24 02:33:06;;;;;;;;;;;;;;;21.07;44.07;99864.31;12228306;19;20382;-82
2022/08/24 02:37:08;;;;;;;;;;;;;;;21.08;43.96;99865.13;12228632;19;19911;-81
2022/08/24 02:41:11;;;;;;;;;;;;;;;21.07;43.44;99864.31;12208130;19;19906;-81
2022/08/24 02:45:13;;;;;;;;;;;;;;;21.05;43.44;99869.38;12229985;19;19903;-82
2022/08/24 02:49:15;;;;;;;;;;;;;;;21.04;43.74;99872.53;12230073;19;19910;-81
2022/08/24 02:53:18;;;;;;;;;;;;;;;21.05;43.73;99865.75;12207370;19;19907;-81
2022/08/24 02:57:20;;;;;;;;;;;;;;;21.05;43.94;99871.38;12228723;19;19915;-81
2022/08/24 03:01:22;;;;;;;;;;;;;;;21.07;44.04;99874.69;12228809;19;19914;-81
2022/08/24 03:05:31;;;;;;;;;;;;;;;21.07;43.71;99872.72;12206985;19;20249;-81
2022/08/24 03:09:33;;;;;;;;;;;;;;;21.04;43.88;99875.31;12228582;19;19924;-82
2022/08/24 03:13:35;;;;;;;;;;;;;;;20.98;44.35;99882.22;12228102;19;19914;-81
2022/08/24 03:17:37;;;;;;;;;;;;;;;20.93;44.55;99874.75;12205779;19;19918;-81
2022/08/24 03:21:42;;;;;;;;;;;;;;;20.90;44.05;99875.38;12225912;19;19927;-81
2022/08/24 03:25:45;;;;;;;;;;;;;;;20.85;44.27;99872.69;12206978;19;19922;-82
2022/08/24 03:29:47;;;;;;;;;;;;;;;20.80;44.44;99873.66;12227710;19;19907;-81
2022/08/24 03:33:50;;;;;;;;;;;;;;;20.75;44.58;99870.16;12222975;19;19915;-81
2022/08/24 03:37:53;;;;;;;;;;;;;;;20.70;44.60;99865.47;12204173;19;19963;-82
2022/08/24 03:41:54;;;;;;;;;;;;;;;20.65;44.86;99865.63;12223127;19;19914;-81
2022/08/24 03:46:00;;;;;;;;;;;;;;;20.60;44.47;99860.13;12224479;19;19933;-81
2022/08/24 03:50:03;;;;;;;;;;;;;;;20.60;44.81;99868.53;12204355;19;19922;-82
2022/08/24 03:54:06;;;;;;;;;;;;;;;20.59;44.89;99866.88;12224956;19;20343;-81
2022/08/24 03:58:08;;;;;;;;;;;;;;;20.55;44.69;99868.63;12226133;19;19930;-81
2022/08/24 04:02:11;;;;;;;;;;;;;;;20.53;45.04;99868.16;12203503;19;20268;-80
2022/08/24 04:06:18;;;;;;;;;;;;;;;20.52;44.89;99872.03;12223746;19;19922;-81
2022/08/24 04:10:20;;;;;;;;;;;;;;;20.46;45.06;99872.19;12226290;19;19926;-81
2022/08/24 04:14:21;;;;;;;;;;;;;;;20.43;45.41;99863.56;12203089;19;19914;-82
2022/08/24 04:18:37;;;;;;;;;;;;;;;20.43;45.56;99863.56;12223886;19;19938;-81
2022/08/24 04:22:38;;;;;;;;;;;;;;;20.45;45.64;99869.69;12201409;19;19926;-81
2022/08/24 04:26:40;;;;;;;;;;;;;;;20.51;45.28;99870.41;12225695;19;19930;-82
2022/08/24 04:30:50;;;;;;;;;;;;;;;20.54;45.19;99878.19;12223899;19;19911;-82
2022/08/24 04:35:09;;;;;;;;;;;;;;;20.51;45.35;99874.00;12198178;19;20372;-81
2022/08/24 04:39:11;;;;;;;;;;;;;;;20.50;45.60;99875.16;12221209;19;20247;-81
2022/08/24 04:43:28;;;;;;;;;;;;;;;20.52;45.59;99877.63;12224701;19;19927;-81
2022/08/24 04:47:31;;;;;;;;;;;;;;;20.51;45.77;99882.41;12202178;19;19907;-80
2022/08/24 04:51:33;;;;;;;;;;;;;;;20.55;45.94;99879.84;12222775;19;19910;-82
2022/08/24 04:55:42;;;;;;;;;;;;;;;20.59;45.99;99887.31;12214005;19;19915;-82
2022/08/24 04:59:44;;;;;;;;;;;;;;;20.64;45.74;99895.59;12236375;19;19926;-81
2022/08/24 05:03:48;;;;;;;;;;;;;;;20.68;46.22;99893.00;12234087;19;19914;-81
2022/08/24 05:07:50;;;;;;;;;;;;;;;20.73;45.73;99897.63;12213259;19;19907;-82
2022/08/24 05:11:56;;;;;;;;;;;;;;;20.79;45.80;99902.81;12234333;19;19915;-82
2022/08/24 05:16:04;;;;;;;;;;;;;;;20.83;45.53;99903.00;12234214;19;20275;-81
2022/08/24 05:20:08;;;;;;;;;;;;;;;20.90;45.61;99907.00;12213311;19;19936;-82
2022/08/24 05:24:09;;;;;;;;;;;;;;;20.97;45.72;99908.53;12233728;19;19915;-81
2022/08/24 05:28:11;;;;;;;;;;;;;;;21.01;45.65;99910.41;12235863;19;19910;-82
2022/08/24 05:32:15;;;;;;;;;;;;;;;21.13;45.18;99915.44;12210249;19;19915;-81
2022/08/24 05:36:19;;;;;;;;;;;;;;;21.23;45.48;99917.97;12231629;19;19911;-82
2022/08/24 05:40:22;;;;;;;;;;;;;;;21.27;45.55;99918.19;12233663;19;19938;-81
2022/08/24 05:44:30;;;;;;;;;;;;;;;21.32;45.46;99918.88;12213667;19;20268;-81
2022/08/24 05:48:36;;;;;;;;;;;;;;;21.35;46.08;99917.41;12234934;19;19907;-81
2022/08/24 05:52:40;;;;;;;;;;;;;;;21.37;46.19;99923.56;12209234;19;19970;-81
2022/08/24 05:56:43;;;;;;;;;;;;;;;21.35;46.23;99923.84;12233966;19;19915;-82
2022/08/24 06:00:45;;;;;;;;;;;;;;;21.36;46.61;99931.16;12233890;19;19931;-81
2022/08/24 06:04:47;;;;;;;;;;;;;;;21.41;46.33;99926.53;12211904;19;19911;-81
2022/08/24 06:08:49;;;;;;;;;;;;;;;21.47;46.29;99934.50;12232421;19;20012;-81
2022/08/24 06:12:51;;;;;;;;;;;;;;;21.51;46.81;99940.31;12230727;19;19927;-82
2022/08/24 06:16:53;;;;;;;;;;;;;;;21.57;47.17;99945.47;12208104;19;19922;-81
2022/08/24 06:20:55;;;;;;;;;;;;;;;21.64;46.74;99942.19;12230238;19;20245;-81
2022/08/24 06:29:24;;;;;;;;;;;;;;;21.86;47.35;99952.53;12208314;19;19911;-81
2022/08/24 06:33:30;;;;;;;;;;;;;;;21.98;47.42;99951.94;12228437;19;20244;-82
2022/08/24 06:37:32;;;;;;;;;;;;;;;22.14;47.44;99950.38;12228670;19;19986;-81
2022/08/24 06:41:35;;;;;;;;;;;;;;;22.30;46.60;99950.78;12208420;19;19911;-81
2022/08/24 06:45:42;;;;;;;;;;;;;;;22.48;46.24;99946.06;12230719;19;20264;-81
2022/08/24 06:49:47;;;;;;;;;;;;;;;22.71;46.11;99955.22;12206455;19;19911;-82
2022/08/24 06:53:49;;;;;;;;;;;;;;;23.00;45.17;99968.66;12227489;19;20340;-81
2022/08/24 06:57:51;;;;;;;;;;;;;;;23.22;44.58;99964.88;12225130;19;19935;-81
2022/08/24 07:01:56;;;;;;;;;;;;;;;23.50;44.19;99971.00;12205688;19;19945;-81
2022/08/24 07:06:01;;;;;;;;;;;;;;;23.82;44.04;99969.59;12228337;19;19938;-82
2022/08/24 07:10:16;;;;;;;;;;;;;;;24.11;43.22;99956.78;12228422;19;20352;-81
2022/08/24 07:14:24;;;;;;;;;;;;;;;24.40;43.09;99964.44;12207215;19;20253;-82
2022/08/24 07:18:26;;;;;;;;;;;;;;;24.68;41.88;99955.53;12227145;19;20270;-82
2022/08/24 07:22:28;;;;;;;;;;;;;;;24.95;42.17;99962.63;12228497;19;19911;-82
2022/08/24 07:26:30;;;;;;;;;;;;;;;25.10;41.94;99961.19;12204172;19;19974;-81
2022/08/24 07:30:32;;;;;;;;;;;;;;;25.32;40.85;99963.72;12228073;19;20366;-81
2022/08/24 07:34:36;;;;;;;;;;;;;;;25.56;41.24;99970.63;12247847;19;19919;-82
2022/08/24 07:38:39;;;;;;;;;;;;;;;25.79;39.23;99974.72;12253860;19;19939;-82
2022/08/24 07:42:41;;;;;;;;;;;;;;;26.14;39.25;99961.03;12274352;19;19911;-81
2022/08/24 07:46:44;;;;;;;;;;;;;;;26.48;38.54;99963.78;12254746;19;19907;-82
2022/08/24 07:50:48;;;;;;;;;;;;;;;26.78;37.91;99970.03;12272407;19;19918;-82
2022/08/24 07:54:50;;;;;;;;;;;;;;;26.97;37.62;99973.06;12274119;19;19911;-83
2022/08/24 07:58:52;;;;;;;;;;;;;;;27.01;37.87;99973.19;12250526;19;19910;-81
2022/08/24 08:02:55;;;;;;;;;;;;;;;27.22;37.73;99982.34;12227476;19;19911;-82
2022/08/24 08:06:59;;;;;;;;;;;;;;;27.37;37.46;99977.94;12228170;19;19943;-82
2022/08/24 08:11:03;;;;;;;;;;;;;;;27.44;36.79;99985.81;12206806;19;19914;-82
2022/08/24 08:15:08;;;;;;;;;;;;;;;27.52;36.97;99987.69;12227254;19;19907;-82
2022/08/24 08:19:12;;;;;;;;;;;;;;;27.60;36.72;99992.34;12227976;19;19910;-82
2022/08/24 08:27:57;;;;;;;;;;;;;;;27.96;36.16;99990.53;12239718;19;19935;-82
2022/08/24 08:32:15;;;;;;;;;;;;;;;28.24;34.97;99984.00;12229010;19;19907;-83
2022/08/24 08:36:20;;;;;;;;;;;;;;;28.48;34.97;99983.03;12249322;19;19918;-82
2022/08/24 08:40:33;;;;;;;;;;;;;;;28.53;34.52;99983.59;12252049;19;19921;-81
2022/08/24 08:44:52;;;;;;;;;;;;;;;28.70;34.80;99990.88;12228199;19;19916;-82
2022/08/24 08:48:57;;;;;;;;;;;;;;;29.01;34.18;99989.19;12248967;19;19906;-82
2022/08/24 08:53:13;;;;;;;;;;;;;;;29.26;33.36;99981.25;12227130;19;19987;-83
2022/08/24 08:57:18;;;;;;;;;;;;;;;29.62;32.61;99985.69;12248662;19;20343;-82
2022/08/24 09:01:24;;;;;;;;;;;;;;;29.90;31.96;99985.44;12249436;19;19945;-84
2022/08/24 09:05:40;;;;;;;;;;;;;;;30.12;31.88;99977.31;12229787;19;19915;-82
2022/08/24 09:10:09;;;;;;;;;;;;;;;30.37;31.42;99978.63;12249583;19;19982;-83
2022/08/24 09:14:26;;;;;;;;;;;;;;;30.74;30.47;99978.00;12225539;19;19903;-83
2022/08/24 09:18:40;;;;;;;;;;;;;;;31.13;31.21;99974.13;12246504;19;19922;-82
2022/08/24 09:22:46;;;;;;;;;;;;;;;31.36;30.56;99979.75;12225100;19;19914;-82
2022/08/24 09:27:08;;;;;;;;;;;;;;;31.46;30.16;99984.75;12248510;19;19930;-84
2022/08/24 09:31:25;;;;;;;;;;;;;;;31.62;30.37;99978.84;12248027;19;19929;-82
2022/08/24 09:35:31;;;;;;;;;;;;;;;31.78;29.78;99977.41;12226776;19;19910;-83
2022/08/24 09:39:33;;;;;;;;;;;;;;;31.97;29.94;99981.31;12237679;19;19969;-82
2022/08/24 09:43:54;;;;;;;;;;;;;;;32.01;29.38;99985.03;12236734;19;19919;-83
2022/08/24 09:48:08;;;;;;;;;;;;;;;32.28;29.71;99977.16;12216855;19;19932;-84
2022/08/24 09:52:39;;;;;;;;;;;;;;;32.48;28.51;99983.44;12239064;19;19911;-83
2022/08/24 09:56:59;;;;;;;;;;;;;;;32.58;28.46;99976.22;12218221;19;20247;-82
2022/08/24 10:01:26;;;;;;;;;;;;;;;32.53;27.48;99985.13;12236880;19;19918;-84
2022/08/24 10:05:54;;;;;;;;;;;;;;;32.48;28.37;99972.03;12215168;19;19915;-82
2022/08/24 10:09:56;;;;;;;;;;;;;;;32.66;28.79;99966.47;12235226;19;20233;-83
2022/08/24 10:13:58;;;;;;;;;;;;;;;32.81;28.67;99968.22;12213520;19;19937;-82
2022/08/24 10:18:02;;;;;;;;;;;;;;;32.89;28.17;99960.53;12237846;19;19928;-83
2022/08/24 10:22:18;;;;;;;;;;;;;;;32.59;27.93;99955.84;12237587;19;19915;-82
2022/08/24 10:26:24;;;;;;;;;;;;;;;32.60;27.11;99962.34;12213898;19;19906;-83
2022/08/24 10:30:35;;;;;;;;;;;;;;;32.75;27.08;99954.72;12235013;19;19911;-83
2022/08/24 10:34:54;;;;;;;;;;;;;;;33.19;26.75;99959.50;12224606;19;19903;-82
2022/08/24 10:43:55;;;;;;;;;;;;;;;33.60;26.03;99950.75;12213256;19;20617;-83
2022/08/24 10:48:15;;;;;;;;;;;;;;;33.74;26.00;99945.06;12232345;19;20306;-83
2022/08/24 10:52:38;;;;;;;;;;;;;;;33.91;26.11;99950.00;12231328;19;19906;-84
2022/08/24 10:56:56;;;;;;;;;;;;;;;34.07;25.89;99940.25;12210773;19;20301;-82
2022/08/24 11:01:11;;;;;;;;;;;;;;;34.28;26.13;99950.91;12232786;19;19928;-82
2022/08/24 11:05:15;;;;;;;;;;;;;;;34.06;25.56;99950.03;12210841;19;19926;-83
2022/08/24 11:09:17;;;;;;;;;;;;;;;33.78;25.62;99945.88;12231460;19;19907;-85
2022/08/24 11:13:24;;;;;;;;;;;;;;;33.82;26.40;99946.69;12231329;19;19915;-83
2022/08/24 11:17:27;;;;;;;;;;;;;;;34.25;25.87;99944.75;12210532;19;19922;-84
2022/08/24 11:21:35;;;;;;;;;;;;;;;34.51;25.20;99928.41;12229875;19;19914;-83
2022/08/24 11:25:37;;;;;;;;;;;;;;;34.39;24.85;99940.28;12223818;19;19911;-83
2022/08/24 11:29:53;;;;;;;;;;;;;;;34.61;24.75;99941.09;12230707;19;20287;-82
2022/08/24 11:34:00;;;;;;;;;;;;;;;34.77;24.48;99934.94;12227068;19;20269;-84
2022/08/24 11:38:04;;;;;;;;;;;;;;;34.75;24.04;99940.28;12208905;19;19951;-83
2022/08/24 11:42:12;;;;;;;;;;;;;;;34.81;23.80;99930.84;12228962;19;19923;-84
2022/08/24 11:46:17;;;;;;;;;;;;;;;35.35;23.88;99933.56;12231769;19;19910;-84
2022/08/24 11:50:25;;;;;;;;;;;;;;;36.09;22.77;99927.88;12208357;19;20348;-81
2022/08/24 11:54:37;;;;;;;;;;;;;;;36.43;22.34;99934.56;12228821;19;19922;-82
2022/08/24 11:58:47;;;;;;;;;;;;;;;36.79;22.41;99919.88;12208469;19;19907;-81
2022/08/24 12:02:59;;;;;;;;;;;;;;;37.23;22.39;99923.13;12224824;19;19914;-81
2022/08/24 12:07:14;;;;;;;;;;;;;;;37.30;21.68;99920.13;12233791;19;19917;-82
2022/08/24 12:11:34;;;;;;;;;;;;;;;37.54;21.51;99913.31;12211717;19;19911;-82
2022/08/24 12:15:41;;;;;;;;;;;;;;;37.93;21.78;99913.94;12233786;19;19936;-82
2022/08/24 12:19:47;;;;;;;;;;;;;;;38.17;21.52;99909.91;12209265;19;19911;-83
2022/08/24 12:23:50;;;;;;;;;;;;;;;37.92;20.58;99901.63;12230117;19;20348;-81
2022/08/24 12:27:52;;;;;;;;;;;;;;;38.30;20.81;99904.34;12232374;19;19907;-81
2022/08/24 12:31:57;;;;;;;;;;;;;;;38.64;21.05;99901.31;12207856;19;19915;-82
2022/08/24 12:36:01;;;;;;;;;;;;;;;38.06;20.46;99901.44;12224803;19;19918;-82
2022/08/24 12:40:15;;;;;;;;;;;;;;;38.74;20.39;99887.94;12227637;19;19914;-84
2022/08/24 12:44:20;;;;;;;;;;;;;;;38.63;19.44;99899.66;12205975;19;19993;-82
2022/08/24 12:48:30;;;;;;;;;;;;;;;39.33;19.82;99901.63;12226813;19;19936;-81
2022/08/24 12:52:43;;;;;;;;;;;;;;;39.96;19.27;99902.69;12226359;19;20356;-82
2022/08/24 12:57:02;;;;;;;;;;;;;;;40.47;18.60;99892.31;12210373;19;19923;-82
2022/08/24 13:01:05;;;;;;;;;;;;;;;40.46;18.36;99876.28;12228283;19;19907;-83
2022/08/24 13:05:10;;;;;;;;;;;;;;;41.12;18.36;99885.63;12203332;19;19914;-81
2022/08/24 13:09:25;;;;;;;;;;;;;;;41.44;17.65;99880.94;12227292;19;19963;-83
2022/08/24 13:13:39;;;;;;;;;;;;;;;41.73;17.59;99868.47;12231634;19;20233;-82
2022/08/24 13:17:41;;;;;;;;;;;;;;;41.49;17.41;99868.81;12219142;19;19918;-81
2022/08/24 13:21:45;;;;;;;;;;;;;;;42.03;16.67;99873.69;12236157;19;19911;-82
2022/08/24 13:25:48;;;;;;;;;;;;;;;41.46;17.02;99863.94;12217186;19;19915;-82
2022/08/24 13:30:25;;;;;;;;;;;;;;;41.97;16.50;99863.97;12236692;19;19910;-80
2022/08/24 13:34:39;;;;;;;;;;;;;;;41.84;16.88;99866.06;12235266;19;19919;-82
2022/08/24 13:38:49;;;;;;;;;;;;;;;42.29;16.52;99867.88;12216250;19;19911;-82
2022/08/24 13:43:06;;;;;;;;;;;;;;;42.81;16.19;99854.06;12235213;19;19916;-81
2022/08/24 13:47:10;;;;;;;;;;;;;;;43.25;16.03;99846.19;12214519;19;20227;-81
2022/08/24 13:51:30;;;;;;;;;;;;;;;42.95;15.84;99851.44;12233270;19;19915;-81
2022/08/24 13:55:31;;;;;;;;;;;;;;;42.98;15.81;99850.50;12237068;19;19916;-83
2022/08/24 13:59:37;;;;;;;;;;;;;;;42.94;15.79;99844.03;12214033;19;19922;-81
2022/08/24 14:03:51;;;;;;;;;;;;;;;41.39;16.45;99838.13;12268727;19;19918;-84
2022/08/24 14:08:08;;;;;;;;;;;;;;;40.57;16.97;99849.16;12260080;19;19919;-82
2022/08/24 14:12:13;;;;;;;;;;;;;;;39.22;18.16;99834.72;12250098;19;19911;-82
2022/08/24 14:21:00;;;;;;;;;;;;;;;38.13;18.54;99840.09;12214547;19;19922;-81
2022/08/24 14:25:11;;;;;;;;;;;;;;;37.81;18.78;99832.00;12234450;19;19914;-80
2022/08/24 14:29:16;;;;;;;;;;;;;;;37.52;18.76;99826.69;12215885;19;19914;-82
2022/08/24 14:33:23;;;;;;;;;;;;;;;37.22;19.71;99823.81;12234224;19;19917;-81
2022/08/24 14:37:38;;;;;;;;;;;;;;;36.72;19.57;99823.16;12235805;19;19907;-81
2022/08/24 14:42:02;;;;;;;;;;;;;;;36.50;20.02;99816.84;12214093;19;20376;-81
2022/08/24 14:46:09;;;;;;;;;;;;;;;36.48;20.32;99807.84;12234209;19;19911;-82
2022/08/24 14:50:14;;;;;;;;;;;;;;;36.38;20.50;99805.06;12214109;19;20260;-82
2022/08/24 14:54:34;;;;;;;;;;;;;;;36.62;20.89;99801.16;12233957;19;20276;-81
2022/08/24 14:58:36;;;;;;;;;;;;;;;36.38;21.16;99811.66;12226663;19;20275;-82
2022/08/24 15:02:41;;;;;;;;;;;;;;;36.57;20.96;99800.81;12231324;19;20280;-81
2022/08/24 15:06:52;;;;;;;;;;;;;;;36.42;20.59;99798.06;12234080;19;19911;-81
2022/08/24 15:11:14;;;;;;;;;;;;;;;35.90;21.20;99803.03;12209042;19;19927;-82
2022/08/24 15:15:34;;;;;;;;;;;;;;;35.73;21.69;99791.31;12231308;19;19934;-82
2022/08/24 15:19:55;;;;;;;;;;;;;;;35.82;21.47;99787.97;12229482;19;19914;-81
2022/08/24 15:24:14;;;;;;;;;;;;;;;35.64;21.83;99791.00;12208575;19;19907;-83
2022/08/24 15:28:24;;;;;;;;;;;;;;;35.18;21.72;99789.22;12231716;19;19970;-86
2022/08/24 15:32:40;;;;;;;;;;;;;;;34.97;21.98;99786.44;12205069;19;19911;-83
2022/08/24 15:36:41;;;;;;;;;;;;;;;34.84;22.32;99789.78;12226230;19;19980;-83
2022/08/24 15:40:44;;;;;;;;;;;;;;;34.81;22.29;99784.06;12208515;19;19931;-83
2022/08/24 15:44:48;;;;;;;;;;;;;;;34.72;21.94;99777.97;12228608;19;19907;-83
2022/08/24 15:48:53;;;;;;;;;;;;;;;34.76;22.12;99787.34;12226604;19;20340;-83
2022/08/24 15:52:59;;;;;;;;;;;;;;;34.36;22.58;99784.59;12204504;19;20291;-84
2022/08/24 15:57:03;;;;;;;;;;;;;;;34.16;22.59;99787.06;12225706;19;19914;-83
2022/08/24 16:05:31;;;;;;;;;;;;;;;34.25;22.77;99786.66;12212314;19;19943;-84
2022/08/24 16:09:34;;;;;;;;;;;;;;;34.37;23.01;99789.06;12230681;19;19911;-83
2022/08/24 16:13:40;;;;;;;;;;;;;;;34.25;22.89;99781.75;12226222;19;19910;-83
2022/08/24 16:17:47;;;;;;;;;;;;;;;34.11;22.84;99783.81;12225704;19;19907;-83
2022/08/24 16:21:51;;;;;;;;;;;;;;;34.23;22.60;99787.06;12225398;19;19911;-82
2022/08/24 16:26:13;;;;;;;;;;;;;;;34.17;22.49;99780.13;12204356;19;20274;-82
2022/08/24 16:30:23;;;;;;;;;;;;;;;33.91;22.74;99778.50;12225110;19;19924;-83
2022/08/24 16:34:27;;;;;;;;;;;;;;;33.84;23.03;99791.97;12224154;19;19955;-83
2022/08/24 16:38:30;;;;;;;;;;;;;;;33.64;23.29;99780.13;12208430;19;19928;-82
2022/08/24 16:42:33;;;;;;;;;;;;;;;33.66;23.62;99784.22;12224875;19;20272;-82
2022/08/24 16:46:34;;;;;;;;;;;;;;;33.49;23.62;99780.06;12224330;19;20299;-83
2022/08/24 16:50:36;;;;;;;;;;;;;;;33.38;23.68;99781.31;12213502;19;19921;-84
2022/08/24 16:54:38;;;;;;;;;;;;;;;33.25;23.79;99787.38;12240925;19;19914;-83
2022/08/24 16:58:39;;;;;;;;;;;;;;;33.15;23.75;99782.47;12215028;19;19914;-82
2022/08/24 17:02:41;;;;;;;;;;;;;;;32.99;23.96;99780.00;12235250;19;20335;-83
2022/08/24 17:06:44;;;;;;;;;;;;;;;32.80;24.23;99778.25;12236656;19;19911;-82
2022/08/24 17:10:45;;;;;;;;;;;;;;;32.61;24.54;99773.69;12214053;19;19911;-83
2022/08/24 17:14:47;;;;;;;;;;;;;;;32.47;24.84;99782.19;12235278;19;19915;-83
2022/08/24 17:18:48;;;;;;;;;;;;;;;32.39;24.92;99783.31;12232066;19;19919;-83
2022/08/24 17:22:51;;;;;;;;;;;;;;;32.31;25.15;99785.31;12209907;19;20288;-83
2022/08/24 17:26:53;;;;;;;;;;;;;;;32.21;25.35;99777.50;12233822;19;19928;-83
2022/08/24 17:30:54;;;;;;;;;;;;;;;32.09;25.08;99786.38;12233678;19;19914;-83
2022/08/24 17:34:56;;;;;;;;;;;;;;;31.93;25.40;99792.38;12214439;19;19924;-82
2022/08/24 17:38:59;;;;;;;;;;;;;;;31.75;25.57;99793.03;12233105;19;19907;-83
2022/08/24 17:43:00;;;;;;;;;;;;;;;31.68;25.82;99798.66;12232129;19;20359;-83
2022/08/24 17:47:03;;;;;;;;;;;;;;;31.64;25.61;99797.78;12211097;19;19919;-82
2022/08/24 17:51:05;;;;;;;;;;;;;;;32.07;25.59;99803.09;12231535;19;19928;-82
2022/08/24 17:55:08;;;;;;;;;;;;;;;31.86;25.76;99804.50;12231727;19;19922;-82
2022/08/24 17:59:23;;;;;;;;;;;;;;;31.54;25.86;99799.34;12208001;19;19919;-82
2022/08/24 18:03:25;;;;;;;;;;;;;;;31.21;26.11;99814.44;12232165;19;20271;-82
2022/08/24 18:07:28;;;;;;;;;;;;;;;30.93;26.87;99814.91;12232088;19;19927;-82
2022/08/24 18:11:49;;;;;;;;;;;;;;;30.62;27.05;99807.56;12208747;19;19950;-82
2022/08/24 18:15:51;;;;;;;;;;;;;;;30.34;27.56;99811.66;12230842;19;19907;-82
2022/08/24 18:19:53;;;;;;;;;;;;;;;30.09;27.57;99818.94;12207528;19;19911;-81
2022/08/24 18:23:54;;;;;;;;;;;;;;;29.86;28.10;99819.78;12228904;19;19915;-81
2022/08/24 18:27:57;;;;;;;;;;;;;;;29.62;28.48;99828.69;12233866;19;19992;-81
2022/08/24 18:31:59;;;;;;;;;;;;;;;29.37;28.53;99834.72;12209616;19;19923;-81
2022/08/24 18:36:00;;;;;;;;;;;;;;;29.07;29.12;99831.69;12229481;19;19919;-82
2022/08/24 18:40:02;;;;;;;;;;;;;;;28.76;29.94;99827.75;12228888;19;19914;-81
2022/08/24 18:44:07;;;;;;;;;;;;;;;28.48;30.07;99836.47;12208427;19;19915;-82
2022/08/24 18:48:14;;;;;;;;;;;;;;;28.22;30.06;99839.06;12229805;19;19910;-81
2022/08/24 18:52:16;;;;;;;;;;;;;;;27.94;30.62;99840.81;12229403;19;19917;-81
2022/08/24 18:56:17;;;;;;;;;;;;;;;27.67;30.92;99839.69;12207742;19;19911;-81
2022/08/24 19:00:19;;;;;;;;;;;;;;;27.40;31.52;99846.25;12229191;19;19921;-81
2022/08/24 19:04:21;;;;;;;;;;;;;;;27.15;31.64;99840.69;12229072;19;20003;-81
2022/08/24 19:08:33;;;;;;;;;;;;;;;26.93;32.42;99846.91;12231281;19;19914;-82
2022/08/24 19:12:37;;;;;;;;;;;;;;;26.73;32.37;99846.72;12278895;19;19915;-82
2022/08/24 19:16:39;;;;;;;;;;;;;;;26.56;32.96;99844.16;12257755;19;19902;-81
2022/08/24 19:20:43;;;;;;;;;;;;;;;26.40;32.99;99846.06;12278885;19;19927;-82
2022/08/24 19:24:48;;;;;;;;;;;;;;;26.25;33.41;99845.59;12247704;19;19911;-82
2022/08/24 19:28:51;;;;;;;;;;;;;;;26.11;33.08;99851.59;12213714;19;19923;-81
2022/08/24 19:32:56;;;;;;;;;;;;;;;26.01;33.68;99842.81;12231397;19;19907;-82
2022/08/24 19:36:58;;;;;;;;;;;;;;;25.90;33.44;99850.91;12232078;19;20240;-82
2022/08/24 19:41:02;;;;;;;;;;;;;;;25.81;33.82;99847.34;12208608;19;20265;-81
2022/08/24 19:49:36;;;;;;;;;;;;;;;25.60;33.69;99847.44;12232406;19;19928;-81
2022/08/24 19:53:38;;;;;;;;;;;;;;;25.53;33.80;99850.00;12229672;19;19922;-82
2022/08/24 19:57:46;;;;;;;;;;;;;;;25.45;33.95;99849.75;12232020;19;19914;-81
2022/08/24 20:01:48;;;;;;;;;;;;;;;25.40;33.83;99847.16;12209686;19;19918;-82
2022/08/24 20:05:49;;;;;;;;;;;;;;;25.32;34.24;99842.44;12230925;19;19911;-82
2022/08/24 20:09:51;;;;;;;;;;;;;;;25.27;33.76;99839.00;12230108;19;20344;-81
2022/08/24 20:13:53;;;;;;;;;;;;;;;25.24;34.13;99844.16;12207262;19;19910;-81
2022/08/24 20:17:56;;;;;;;;;;;;;;;25.20;33.80;99845.22;12229304;19;20251;-82
2022/08/24 20:21:57;;;;;;;;;;;;;;;25.15;33.84;99842.59;12241596;19;19919;-82
2022/08/24 20:26:02;;;;;;;;;;;;;;;25.11;33.98;99844.44;12252985;19;19911;-82
2022/08/24 20:30:05;;;;;;;;;;;;;;;25.09;33.83;99852.44;12257953;19;20340;-81
2022/08/24 20:34:06;;;;;;;;;;;;;;;25.03;34.24;99851.81;12228034;19;19931;-82
2022/08/24 20:38:08;;;;;;;;;;;;;;;24.99;34.16;99851.69;12206817;19;19923;-81
2022/08/24 20:42:09;;;;;;;;;;;;;;;24.94;33.96;99853.88;12227355;19;20369;-81
2022/08/24 20:46:19;;;;;;;;;;;;;;;24.89;34.02;99852.09;12228742;19;19915;-82
2022/08/24 20:50:22;;;;;;;;;;;;;;;24.84;34.22;99843.88;12206277;19;19911;-81
2022/08/24 20:54:23;;;;;;;;;;;;;;;24.79;34.79;99842.06;12227738;19;19920;-81
2022/08/24 20:58:25;;;;;;;;;;;;;;;24.73;34.90;99848.25;12227536;19;19911;-81
2022/08/24 21:02:27;;;;;;;;;;;;;;;24.68;34.66;99834.38;12203683;19;19921;-83
2022/08/24 21:06:29;;;;;;;;;;;;;;;24.63;35.19;99846.69;12228003;19;19915;-83
2022/08/24 21:10:30;;;;;;;;;;;;;;;24.56;35.25;99847.22;12227555;19;19911;-83
2022/08/24 21:14:32;;;;;;;;;;;;;;;24.51;35.04;99847.44;12204869;19;19908;-82
2022/08/24 21:18:33;;;;;;;;;;;;;;;24.49;35.04;99857.41;12227539;19;19907;-83
2022/08/24 21:22:35;;;;;;;;;;;;;;;24.47;35.16;99848.47;12226373;19;20217;-83
2022/08/24 21:26:37;;;;;;;;;;;;;;;24.44;35.74;99858.41;12206041;19;19910;-83
2022/08/24 21:30:38;;;;;;;;;;;;;;;24.43;35.59;99862.41;12227739;19;19910;-81
2022/08/24 21:34:40;;;;;;;;;;;;;;;24.42;35.49;99860.75;12209848;19;20262;-83